sensor_id;sensor_type;location;lat;lon;timestamp;pressure;altitude;pressure_sealevel;temperature;humidity
48386;BME280;34644;47.964;7.982;2023-05-23T00:02:31;96567.03;;;18.90;75.22
48386;BME280;34644;47.964;7.982;2023-05-23T00:09:34;96566.22;;;18.89;75.22
48386;BME280;34644;47.964;7.982;2023-05-23T00:16:34;96569.69;;;18.90;75.07
48386;BME280;34644;47.964;7.982;2023-05-23T00:23:40;96568.09;;;18.89;75.08
48386;BME280;34644;47.964;7.982;2023-05-23T00:30:43;96563.84;;;18.88;75.10
48386;BME280;34644;47.964;7.982;2023-05-23T00:37:43;96558.78;;;18.86;75.25
48386;BME280;34644;47.964;7.982;2023-05-23T00:44:44;96558.78;;;18.86;75.53
48386;BME280;34644;47.964;7.982;2023-05-23T00:51:45;96556.91;;;18.87;75.41
48386;BME280;34644;47.964;7.982;2023-05-23T00:58:45;96561.44;;;18.86;75.23
48386;BME280;34644;47.964;7.982;2023-05-23T01:05:46;96563.34;;;18.86;75.34
48386;BME280;34644;47.964;7.982;2023-05-23T01:27:04;96574.50;;;18.88;75.28
48386;BME280;34644;47.964;7.982;2023-05-23T01:34:07;96568.38;;;18.87;75.25
48386;BME280;34644;47.964;7.982;2023-05-23T01:41:09;96564.13;;;18.86;75.70
48386;BME280;34644;47.964;7.982;2023-05-23T01:48:11;96566.00;;;18.86;75.59
48386;BME280;34644;47.964;7.982;2023-05-23T01:55:13;96573.22;;;18.85;76.08
48386;BME280;34644;47.964;7.982;2023-05-23T02:02:15;96568.97;;;18.84;75.69
48386;BME280;34644;47.964;7.982;2023-05-23T02:09:15;96570.56;;;18.85;75.56
48386;BME280;34644;47.964;7.982;2023-05-23T02:16:18;96570.81;;;18.84;75.57
48386;BME280;34644;47.964;7.982;2023-05-23T02:23:19;96568.97;;;18.84;75.35
48386;BME280;34644;47.964;7.982;2023-05-23T02:30:19;96568.97;;;18.84;75.67
48386;BME280;34644;47.964;7.982;2023-05-23T02:37:19;96567.34;;;18.83;75.76
48386;BME280;34644;47.964;7.982;2023-05-23T02:44:21;96568.16;;;18.84;76.03
48386;BME280;34644;47.964;7.982;2023-05-23T02:51:21;96575.63;;;18.81;75.84
48386;BME280;34644;47.964;7.982;2023-05-23T02:58:21;96583.34;;;18.83;75.58
48386;BME280;34644;47.964;7.982;2023-05-23T03:05:23;96580.97;;;18.81;76.28
48386;BME280;34644;47.964;7.982;2023-05-23T03:12:23;96578.28;;;18.81;75.95
48386;BME280;34644;47.964;7.982;2023-05-23T03:19:23;96572.16;;;18.81;75.43
48386;BME280;34644;47.964;7.982;2023-05-23T03:26:23;96568.72;;;18.80;75.52
48386;BME280;34644;47.964;7.982;2023-05-23T03:33:24;96571.66;;;18.79;75.96
48386;BME280;34644;47.964;7.982;2023-05-23T03:40:24;96571.38;;;18.80;76.62
48386;BME280;34644;47.964;7.982;2023-05-23T03:47:25;96576.19;;;18.78;75.54
48386;BME280;34644;47.964;7.982;2023-05-23T03:54:25;96581.63;;;18.73;75.64
48386;BME280;34644;47.964;7.982;2023-05-23T04:01:26;96577.38;;;18.72;75.35
48386;BME280;34644;47.964;7.982;2023-05-23T04:08:28;96574.16;;;18.70;75.37
48386;BME280;34644;47.964;7.982;2023-05-23T04:15:29;96593.16;;;18.69;75.52
48386;BME280;34644;47.964;7.982;2023-05-23T04:22:38;96602.75;;;18.70;75.59
48386;BME280;34644;47.964;7.982;2023-05-23T04:29:39;96607.59;;;18.68;75.33
48386;BME280;34644;47.964;7.982;2023-05-23T04:36:39;96600.75;;;18.56;74.20
48386;BME280;34644;47.964;7.982;2023-05-23T04:43:43;96606.09;;;18.56;74.42
48386;BME280;34644;47.964;7.982;2023-05-23T04:50:50;96611.50;;;18.51;74.35
48386;BME280;34644;47.964;7.982;2023-05-23T04:57:51;96633.59;;;18.57;74.38
48386;BME280;34644;47.964;7.982;2023-05-23T05:04:52;96629.84;;;18.58;74.25
48386;BME280;34644;47.964;7.982;2023-05-23T05:11:53;96622.34;;;18.60;74.33
48386;BME280;34644;47.964;7.982;2023-05-23T05:18:55;96620.06;;;18.48;74.14
48386;BME280;34644;47.964;7.982;2023-05-23T05:25:56;96614.97;;;18.52;74.14
48386;BME280;34644;47.964;7.982;2023-05-23T05:32:57;96620.75;;;18.59;74.19
48386;BME280;34644;47.964;7.982;2023-05-23T05:39:57;96622.34;;;18.60;74.42
48386;BME280;34644;47.964;7.982;2023-05-23T05:46:58;96630.59;;;18.63;74.43
48386;BME280;34644;47.964;7.982;2023-05-23T05:53:59;96637.56;;;18.59;74.41
48386;BME280;34644;47.964;7.982;2023-05-23T06:00:59;96636.00;;;18.58;74.26
48386;BME280;34644;47.964;7.982;2023-05-23T06:08:00;96638.09;;;18.61;74.24
48386;BME280;34644;47.964;7.982;2023-05-23T06:15:00;96661.34;;;18.56;74.78
48386;BME280;34644;47.964;7.982;2023-05-23T06:22:01;96657.09;;;18.55;74.58
48386;BME280;34644;47.964;7.982;2023-05-23T06:29:02;96654.75;;;18.48;74.41
48386;BME280;34644;47.964;7.982;2023-05-23T06:36:03;96660.06;;;18.53;74.41
48386;BME280;34644;47.964;7.982;2023-05-23T06:43:05;96655.28;;;18.50;74.66
48386;BME280;34644;47.964;7.982;2023-05-23T06:50:19;96669.97;;;18.48;74.78
48386;BME280;34644;47.964;7.982;2023-05-23T06:57:20;96664.09;;;18.51;74.71
48386;BME280;34644;47.964;7.982;2023-05-23T07:04:20;96673.72;;;18.47;74.73
48386;BME280;34644;47.964;7.982;2023-05-23T07:11:21;96668.16;;;18.43;75.05
48386;BME280;34644;47.964;7.982;2023-05-23T07:18:28;96674.25;;;18.49;75.14
48386;BME280;34644;47.964;7.982;2023-05-23T07:25:30;96680.03;;;18.56;74.58
48386;BME280;34644;47.964;7.982;2023-05-23T07:32:31;96683.28;;;18.53;75.16
48386;BME280;34644;47.964;7.982;2023-05-23T07:39:32;96679.81;;;18.52;75.26
48386;BME280;34644;47.964;7.982;2023-05-23T07:46:34;96680.59;;;18.53;75.59
48386;BME280;34644;47.964;7.982;2023-05-23T07:53:35;96668.06;;;18.53;75.53
48386;BME280;34644;47.964;7.982;2023-05-23T08:00:40;96671.41;;;18.64;75.22
48386;BME280;34644;47.964;7.982;2023-05-23T08:07:49;96670.84;;;18.67;75.17
48386;BME280;34644;47.964;7.982;2023-05-23T08:14:49;96671.88;;;18.71;75.06
48386;BME280;34644;47.964;7.982;2023-05-23T08:21:56;96685.28;;;18.66;75.49
48386;BME280;34644;47.964;7.982;2023-05-23T08:28:57;96690.34;;;18.68;75.53
48386;BME280;34644;47.964;7.982;2023-05-23T08:35:58;96687.31;;;18.74;75.21
48386;BME280;34644;47.964;7.982;2023-05-23T08:42:58;96694.56;;;18.74;75.25
48386;BME280;34644;47.964;7.982;2023-05-23T08:49:59;96692.66;;;18.74;74.95
48386;BME280;34644;47.964;7.982;2023-05-23T08:57:01;96700.91;;;18.78;75.02
48386;BME280;34644;47.964;7.982;2023-05-23T09:04:04;96702.72;;;18.83;74.60
48386;BME280;34644;47.964;7.982;2023-05-23T09:11:32;96696.19;;;18.94;74.65
48386;BME280;34644;47.964;7.982;2023-05-23T09:25:37;96706.09;;;18.93;74.35
48386;BME280;34644;47.964;7.982;2023-05-23T09:32:56;96706.53;;;19.01;74.46
48386;BME280;34644;47.964;7.982;2023-05-23T09:40:00;96708.81;;;19.12;73.62
48386;BME280;34644;47.964;7.982;2023-05-23T09:47:05;96708.66;;;19.23;73.65
48386;BME280;34644;47.964;7.982;2023-05-23T09:54:05;96704.56;;;19.30;73.51
48386;BME280;34644;47.964;7.982;2023-05-23T10:01:06;96705.97;;;19.28;73.48
48386;BME280;34644;47.964;7.982;2023-05-23T10:08:10;96703.72;;;19.35;73.32
48386;BME280;34644;47.964;7.982;2023-05-23T10:15:13;96697.09;;;19.32;73.08
48386;BME280;34644;47.964;7.982;2023-05-23T10:22:15;96707.81;;;19.27;73.45
48386;BME280;34644;47.964;7.982;2023-05-23T10:29:16;96698.53;;;19.44;72.90
48386;BME280;34644;47.964;7.982;2023-05-23T10:36:21;96699.25;;;19.49;72.72
48386;BME280;34644;47.964;7.982;2023-05-23T10:50:32;96694.41;;;19.51;72.67
48386;BME280;34644;47.964;7.982;2023-05-23T10:57:32;96689.19;;;19.60;72.09
48386;BME280;34644;47.964;7.982;2023-05-23T11:04:33;96687.19;;;19.71;71.42
48386;BME280;34644;47.964;7.982;2023-05-23T11:26:29;96678.38;;;19.51;71.83
48386;BME280;34644;47.964;7.982;2023-05-23T11:33:30;96684.72;;;19.56;71.13
48386;BME280;34644;47.964;7.982;2023-05-23T11:40:31;96681.25;;;19.55;70.67
48386;BME280;34644;47.964;7.982;2023-05-23T11:47:39;96686.91;;;19.53;70.91
48386;BME280;34644;47.964;7.982;2023-05-23T11:54:40;96676.78;;;19.50;71.53
48386;BME280;34644;47.964;7.982;2023-05-23T12:01:42;96683.16;;;19.55;71.24
48386;BME280;34644;47.964;7.982;2023-05-23T12:08:42;96681.47;;;19.59;71.14
48386;BME280;34644;47.964;7.982;2023-05-23T12:15:43;96671.81;;;19.63;70.52
48386;BME280;34644;47.964;7.982;2023-05-23T12:22:43;96672.97;;;19.57;71.00
48386;BME280;34644;47.964;7.982;2023-05-23T12:29:49;96677.06;;;19.68;70.61
48386;BME280;34644;47.964;7.982;2023-05-23T12:36:49;96672.88;;;19.81;70.40
48386;BME280;34644;47.964;7.982;2023-05-23T12:43:53;96667.03;;;19.79;70.59
48386;BME280;34644;47.964;7.982;2023-05-23T12:50:54;96674.19;;;19.64;71.20
48386;BME280;34644;47.964;7.982;2023-05-23T12:57:55;96666.09;;;19.69;71.34
48386;BME280;34644;47.964;7.982;2023-05-23T13:04:55;96664.00;;;19.66;71.60
48386;BME280;34644;47.964;7.982;2023-05-23T13:11:55;96660.44;;;19.71;71.60
48386;BME280;34644;47.964;7.982;2023-05-23T13:18:56;96651.13;;;19.68;71.54
48386;BME280;34644;47.964;7.982;2023-05-23T13:25:56;96650.91;;;19.65;72.12
48386;BME280;34644;47.964;7.982;2023-05-23T13:32:57;96654.59;;;19.69;71.52
48386;BME280;34644;47.964;7.982;2023-05-23T13:39:57;96653.88;;;19.82;70.28
48386;BME280;34644;47.964;7.982;2023-05-23T13:47:00;96654.81;;;19.73;71.50
48386;BME280;34644;47.964;7.982;2023-05-23T13:54:08;96645.66;;;19.79;71.28
48386;BME280;34644;47.964;7.982;2023-05-23T14:01:08;96655.31;;;19.75;71.78
48386;BME280;34644;47.964;7.982;2023-05-23T14:08:08;96635.00;;;19.74;71.67
48386;BME280;34644;47.964;7.982;2023-05-23T14:15:10;96632.34;;;19.74;71.49
48386;BME280;34644;47.964;7.982;2023-05-23T14:22:11;96639.84;;;19.71;71.61
48386;BME280;34644;47.964;7.982;2023-05-23T14:29:11;96637.16;;;19.71;71.79
48386;BME280;34644;47.964;7.982;2023-05-23T14:36:11;96646.50;;;19.74;71.66
48386;BME280;34644;47.964;7.982;2023-05-23T14:43:12;96629.97;;;19.72;71.78
48386;BME280;34644;47.964;7.982;2023-05-23T14:50:13;96636.38;;;19.71;71.94
48386;BME280;34644;47.964;7.982;2023-05-23T14:57:14;96630.53;;;19.69;72.04
48386;BME280;34644;47.964;7.982;2023-05-23T15:04:14;96634.78;;;19.70;71.84
48386;BME280;34644;47.964;7.982;2023-05-23T15:11:15;96639.34;;;19.69;71.99
48386;BME280;34644;47.964;7.982;2023-05-23T15:18:15;96629.72;;;19.68;72.13
48386;BME280;34644;47.964;7.982;2023-05-23T15:25:16;96630.53;;;19.69;71.85
48386;BME280;34644;47.964;7.982;2023-05-23T15:32:16;96627.06;;;19.68;71.80
48386;BME280;34644;47.964;7.982;2023-05-23T15:39:19;96635.38;;;19.67;72.07
48386;BME280;34644;47.964;7.982;2023-05-23T15:46:19;96644.78;;;19.64;72.34
48386;BME280;34644;47.964;7.982;2023-05-23T15:53:20;96647.75;;;19.63;72.40
48386;BME280;34644;47.964;7.982;2023-05-23T16:00:20;96650.41;;;19.63;72.24
48386;BME280;34644;47.964;7.982;2023-05-23T16:07:21;96653.88;;;19.63;71.77
48386;BME280;34644;47.964;7.982;2023-05-23T16:14:21;96653.09;;;19.63;72.05
48386;BME280;34644;47.964;7.982;2023-05-23T16:21:21;96648.81;;;19.62;72.34
48386;BME280;34644;47.964;7.982;2023-05-23T16:28:22;96652.56;;;19.61;72.02
48386;BME280;34644;47.964;7.982;2023-05-23T16:35:22;96646.16;;;19.62;71.98
48386;BME280;34644;47.964;7.982;2023-05-23T16:42:22;96643.19;;;19.63;72.21
48386;BME280;34644;47.964;7.982;2023-05-23T16:49:22;96640.78;;;19.62;72.15
48386;BME280;34644;47.964;7.982;2023-05-23T16:56:23;96644.53;;;19.61;72.35
48386;BME280;34644;47.964;7.982;2023-05-23T17:03:26;96657.13;;;19.60;71.90
48386;BME280;34644;47.964;7.982;2023-05-23T17:10:28;96637.44;;;19.56;71.23
48386;BME280;34644;47.964;7.982;2023-05-23T17:17:28;96646.81;;;19.53;69.36
48386;BME280;34644;47.964;7.982;2023-05-23T17:24:28;96651.06;;;19.55;70.63
48386;BME280;34644;47.964;7.982;2023-05-23T17:31:29;96654.81;;;19.53;70.60
48386;BME280;34644;47.964;7.982;2023-05-23T17:38:30;96652.16;;;19.53;70.89
48386;BME280;34644;47.964;7.982;2023-05-23T17:45:30;96653.22;;;19.52;71.06
48386;BME280;34644;47.964;7.982;2023-05-23T17:52:31;96657.78;;;19.52;71.25
48386;BME280;34644;47.964;7.982;2023-05-23T17:59:31;96661.03;;;19.49;71.92
48386;BME280;34644;47.964;7.982;2023-05-23T18:06:31;96668.56;;;19.47;72.05
48386;BME280;34644;47.964;7.982;2023-05-23T18:13:32;96674.19;;;19.45;72.40
48386;BME280;34644;47.964;7.982;2023-05-23T18:20:32;96676.56;;;19.47;72.30
48386;BME280;34644;47.964;7.982;2023-05-23T18:27:32;96686.44;;;19.46;72.13
48386;BME280;34644;47.964;7.982;2023-05-23T18:34:35;96680.59;;;19.44;72.26
48386;BME280;34644;47.964;7.982;2023-05-23T18:41:35;96689.19;;;19.41;71.53
48386;BME280;34644;47.964;7.982;2023-05-23T18:48:36;96692.16;;;19.40;71.43
48386;BME280;34644;47.964;7.982;2023-05-23T18:55:36;96696.72;;;19.39;70.83
48386;BME280;34644;47.964;7.982;2023-05-23T19:02:37;96695.91;;;19.39;70.71
48386;BME280;34644;47.964;7.982;2023-05-23T19:09:42;96707.69;;;19.38;70.54
48386;BME280;34644;47.964;7.982;2023-05-23T19:16:42;96720.28;;;19.37;70.49
48386;BME280;34644;47.964;7.982;2023-05-23T19:23:43;96733.63;;;19.37;70.68
48386;BME280;34644;47.964;7.982;2023-05-23T19:30:44;96735.50;;;19.37;70.27
48386;BME280;34644;47.964;7.982;2023-05-23T19:37:44;96740.06;;;19.36;70.55
48386;BME280;34644;47.964;7.982;2023-05-23T19:44:45;96746.47;;;19.35;70.33
48386;BME280;34644;47.964;7.982;2023-05-23T19:51:45;96745.69;;;19.34;70.13
48386;BME280;34644;47.964;7.982;2023-05-23T19:58:46;96760.94;;;19.34;70.31
48386;BME280;34644;47.964;7.982;2023-05-23T20:05:47;96767.06;;;19.34;70.05
48386;BME280;34644;47.964;7.982;2023-05-23T20:12:47;96779.38;;;19.30;70.62
48386;BME280;34644;47.964;7.982;2023-05-23T20:19:48;96786.34;;;19.31;70.17
48386;BME280;34644;47.964;7.982;2023-05-23T20:26:48;96790.06;;;19.30;69.99
48386;BME280;34644;47.964;7.982;2023-05-23T20:33:48;96794.91;;;19.28;69.95
48386;BME280;34644;47.964;7.982;2023-05-23T20:40:49;96787.69;;;19.29;70.49
48386;BME280;34644;47.964;7.982;2023-05-23T20:47:49;96797.59;;;19.28;70.04
48386;BME280;34644;47.964;7.982;2023-05-23T20:54:52;96804.81;;;19.28;70.30
48386;BME280;34644;47.964;7.982;2023-05-23T21:01:53;96803.22;;;19.27;70.48
48386;BME280;34644;47.964;7.982;2023-05-23T21:08:53;96813.41;;;19.25;70.31
48386;BME280;34644;47.964;7.982;2023-05-23T21:15:56;96817.38;;;19.27;70.51
48386;BME280;34644;47.964;7.982;2023-05-23T21:22:57;96812.03;;;19.27;70.87
48386;BME280;34644;47.964;7.982;2023-05-23T21:29:57;96823.53;;;19.28;71.09
48386;BME280;34644;47.964;7.982;2023-05-23T21:36:58;96819.75;;;19.29;71.14
48386;BME280;34644;47.964;7.982;2023-05-23T21:43:58;96818.97;;;19.28;71.60
48386;BME280;34644;47.964;7.982;2023-05-23T21:50:58;96825.09;;;19.29;71.52
48386;BME280;34644;47.964;7.982;2023-05-23T21:57:58;96831.25;;;19.29;71.65
48386;BME280;34644;47.964;7.982;2023-05-23T22:13:02;96824.59;;;19.27;72.22
48386;BME280;34644;47.964;7.982;2023-05-23T22:20:03;96828.06;;;19.27;71.75
48386;BME280;34644;47.964;7.982;2023-05-23T22:27:04;96824.59;;;19.27;72.11
48386;BME280;34644;47.964;7.982;2023-05-23T22:34:04;96834.50;;;19.26;72.34
48386;BME280;34644;47.964;7.982;2023-05-23T22:41:04;96838.75;;;19.27;72.30
48386;BME280;34644;47.964;7.982;2023-05-23T22:48:05;96842.78;;;19.25;72.29
48386;BME280;34644;47.964;7.982;2023-05-23T22:55:07;96829.44;;;19.25;72.36
48386;BME280;34644;47.964;7.982;2023-05-23T23:02:07;96826.75;;;19.25;72.37
48386;BME280;34644;47.964;7.982;2023-05-23T23:09:08;96831.28;;;19.24;72.25
48386;BME280;34644;47.964;7.982;2023-05-23T23:16:08;96815.25;;;19.24;72.39
48386;BME280;34644;47.964;7.982;2023-05-23T23:23:08;96811.81;;;19.24;72.26
48386;BME280;34644;47.964;7.982;2023-05-23T23:30:09;96790.44;;;19.24;72.13
48386;BME280;34644;47.964;7.982;2023-05-23T23:37:09;96788.81;;;19.23;72.66
48386;BME280;34644;47.964;7.982;2023-05-23T23:44:10;96781.91;;;19.22;72.62
48386;BME280;34644;47.964;7.982;2023-05-23T23:51:10;96776.56;;;19.22;72.48
48386;BME280;34644;47.964;7.982;2023-05-23T23:58:11;96779.25;;;19.22;72.49
